createdAt,value
2024-04-24T05:01:00.982Z,140.00
2024-04-24T05:02:00.935Z,132.00
2024-04-24T05:03:00.939Z,116.00
2024-04-24T05:04:00.911Z,108.00
2024-04-24T05:05:00.960Z,108.00
2024-04-24T05:06:00.854Z,120.00
2024-04-24T05:07:00.853Z,132.00
2024-04-24T05:08:00.870Z,140.00
2024-04-24T05:09:00.820Z,156.00
2024-04-24T05:10:00.821Z,164.00
2024-04-24T05:11:00.866Z,176.00
2024-04-24T05:12:05.902Z,188.00
2024-04-24T05:13:00.786Z,200.00
2024-04-24T05:14:00.830Z,220.00
2024-04-24T05:15:00.754Z,232.00
2024-04-24T05:16:00.766Z,268.00
2024-04-24T05:17:00.849Z,304.00
2024-04-24T05:18:00.841Z,336.00
2024-04-24T05:19:00.769Z,368.00
2024-04-24T05:20:00.788Z,392.00
2024-04-24T05:21:00.693Z,404.00
2024-04-24T05:22:00.677Z,412.00
2024-04-24T05:23:05.734Z,424.00
2024-04-24T05:24:00.656Z,444.00
2024-04-24T05:25:00.660Z,460.00
2024-04-24T05:26:00.745Z,476.00
2024-04-24T05:27:00.633Z,520.00
2024-04-24T05:28:00.619Z,584.00
2024-04-24T05:29:00.659Z,612.00
2024-04-24T05:30:00.589Z,572.00
2024-04-24T05:31:00.581Z,488.00
2024-04-24T05:32:00.577Z,412.00
2024-04-24T05:33:00.703Z,408.00
2024-04-24T05:34:05.599Z,400.00
2024-04-24T05:35:00.590Z,412.00
2024-04-24T05:36:00.515Z,388.00
2024-04-24T05:37:00.534Z,360.00
2024-04-24T05:38:00.623Z,336.00
2024-04-24T05:39:00.561Z,308.00
2024-04-24T05:40:00.515Z,272.00
2024-04-24T05:41:00.579Z,276.00
2024-04-24T05:42:00.446Z,280.00
2024-04-24T05:43:00.438Z,288.00
2024-04-24T05:44:00.520Z,304.00
2024-04-24T05:45:05.491Z,328.00
2024-04-24T05:46:00.411Z,352.00
2024-04-24T05:47:00.435Z,412.00
2024-04-24T05:48:00.525Z,440.00
2024-04-24T05:49:00.535Z,524.00
2024-04-24T05:50:00.494Z,640.00
2024-04-24T05:51:00.356Z,660.00
2024-04-24T05:52:01.065Z,692.00
2024-04-24T05:53:00.382Z,692.00
2024-04-24T05:54:00.331Z,608.00
2024-04-24T05:55:00.314Z,540.00
2024-04-24T05:56:05.433Z,524.00
2024-04-24T05:57:00.296Z,488.00
2024-04-24T05:58:00.295Z,456.00
2024-04-24T05:59:00.370Z,460.00
2024-04-24T06:00:00.325Z,480.00
2024-04-24T06:01:00.333Z,508.00
2024-04-24T06:02:00.259Z,508.00
2024-04-24T06:03:00.484Z,480.00
2024-04-24T06:04:00.217Z,452.00
2024-04-24T06:05:00.328Z,424.00
2024-04-24T06:06:00.198Z,428.00
2024-04-24T06:07:05.211Z,400.00
2024-04-24T06:08:00.227Z,408.00
2024-04-24T06:09:00.188Z,436.00
2024-04-24T06:10:00.363Z,464.00
2024-04-24T06:11:00.255Z,452.00
2024-04-24T06:12:00.289Z,588.00
2024-04-24T06:13:00.120Z,748.00
2024-04-24T06:14:00.117Z,852.00
2024-04-24T06:15:00.147Z,1012.00
2024-04-24T06:16:00.113Z,1332.00
2024-04-24T06:17:00.114Z,1664.00
2024-04-24T06:18:05.155Z,1896.00
2024-04-24T06:19:00.137Z,1888.00
2024-04-24T06:20:00.053Z,1792.00
2024-04-24T06:21:00.086Z,1676.00
2024-04-24T06:22:00.008Z,1556.00
2024-04-24T06:23:00.014Z,1604.00
2024-04-24T06:23:59.994Z,1608.00
2024-04-24T06:25:00.003Z,1700.00
2024-04-24T06:25:59.987Z,1820.00
2024-04-24T06:26:59.957Z,1964.00
2024-04-24T06:27:59.945Z,1992.00
2024-04-24T06:29:05.041Z,1960.00
2024-04-24T06:29:59.927Z,1908.00
2024-04-24T06:30:59.924Z,1908.00
2024-04-24T06:31:59.989Z,2008.00
2024-04-24T06:32:59.947Z,2072.00
2024-04-24T06:33:59.874Z,1952.00
2024-04-24T06:34:59.905Z,1844.00
2024-04-24T06:35:59.850Z,1792.00
2024-04-24T06:36:59.876Z,1796.00
2024-04-24T06:37:59.858Z,1912.00
2024-04-24T06:38:59.828Z,2056.00
2024-04-24T06:40:04.828Z,2144.00
2024-04-24T06:40:59.859Z,2280.00
2024-04-24T06:41:59.797Z,2388.00
2024-04-24T06:42:59.805Z,2452.00
2024-04-24T06:43:59.785Z,2460.00
2024-04-24T06:44:59.778Z,2580.00
2024-04-24T06:45:59.754Z,2576.00
2024-04-24T06:46:59.742Z,2496.00
2024-04-24T06:47:59.860Z,2508.00
2024-04-24T06:48:59.762Z,2636.00
2024-04-24T06:49:59.779Z,3072.00
2024-04-24T06:51:04.713Z,3608.00
2024-04-24T06:51:59.672Z,4660.00
2024-04-24T06:52:59.726Z,5092.00
2024-04-24T06:53:59.653Z,5312.00
2024-04-24T06:54:59.651Z,5236.00
2024-04-24T06:55:59.649Z,4580.00
2024-04-24T06:56:59.618Z,3784.00
2024-04-24T06:58:00.879Z,3372.00
2024-04-24T06:58:59.611Z,3148.00
2024-04-24T06:59:59.606Z,2792.00
2024-04-24T07:00:59.649Z,2484.00
2024-04-24T07:02:04.653Z,2208.00
2024-04-24T07:02:59.567Z,2008.00
2024-04-24T07:03:59.566Z,1924.00
2024-04-24T07:04:59.537Z,1868.00
2024-04-24T07:05:59.531Z,2028.00
2024-04-24T07:06:59.527Z,2220.00
2024-04-24T07:07:59.532Z,2240.00
2024-04-24T07:08:59.510Z,2264.00
2024-04-24T07:09:59.477Z,2364.00
2024-04-24T07:10:59.538Z,2448.00
2024-04-24T07:11:59.561Z,2404.00
2024-04-24T07:13:04.461Z,2348.00
2024-04-24T07:13:59.486Z,2320.00
2024-04-24T07:14:59.435Z,2336.00
2024-04-24T07:15:59.411Z,2420.00
2024-04-24T07:16:59.406Z,2432.00
2024-04-24T07:17:59.462Z,2272.00
2024-04-24T07:18:59.432Z,2076.00
2024-04-24T07:19:59.407Z,1956.00
2024-04-24T07:20:59.365Z,1896.00
2024-04-24T07:21:59.347Z,1800.00
2024-04-24T07:22:59.343Z,1692.00
2024-04-24T07:24:04.347Z,1612.00
2024-04-24T07:24:59.335Z,1652.00
2024-04-24T07:25:59.376Z,1728.00
2024-04-24T07:26:59.288Z,1928.00
2024-04-24T07:27:59.276Z,2172.00
2024-04-24T07:28:59.281Z,2396.00
2024-04-24T07:29:59.292Z,2572.00
2024-04-24T07:30:59.256Z,2776.00
2024-04-24T07:31:59.302Z,2844.00
2024-04-24T07:32:59.249Z,2828.00
2024-04-24T07:33:59.310Z,2748.00
2024-04-24T07:35:04.273Z,2560.00
2024-04-24T07:35:59.208Z,2676.00
2024-04-24T07:36:59.172Z,3436.00
2024-04-24T07:37:59.301Z,3660.00
2024-04-24T07:38:59.154Z,3704.00
2024-04-24T07:39:59.192Z,4104.00
2024-04-24T07:40:59.157Z,4464.00
2024-04-24T07:41:59.116Z,4972.00
2024-04-24T07:42:59.125Z,5256.00
2024-04-24T07:43:59.151Z,5568.00
2024-04-24T07:44:59.111Z,6076.00
2024-04-24T07:46:04.149Z,6596.00
2024-04-24T07:47:02.527Z,7380.00
2024-04-24T07:47:59.203Z,7892.00
2024-04-24T07:48:59.094Z,9624.00
2024-04-24T07:49:59.090Z,10080.00
2024-04-24T07:50:59.035Z,8468.00
2024-04-24T07:51:59.024Z,7848.00
2024-04-24T07:52:59.033Z,6544.00
2024-04-24T07:53:59.028Z,6936.00
2024-04-24T07:54:59.001Z,7908.00
2024-04-24T07:55:59.023Z,8088.00
2024-04-24T07:57:03.997Z,8632.00
2024-04-24T07:57:58.976Z,8460.00
2024-04-24T07:58:58.940Z,7528.00
2024-04-24T07:59:58.934Z,6960.00
2024-04-24T08:00:58.947Z,7800.00
2024-04-24T08:01:58.975Z,7920.00
2024-04-24T08:02:58.910Z,8916.00
2024-04-24T08:03:58.928Z,7972.00
2024-04-24T08:04:58.885Z,5756.00
2024-04-24T08:05:58.850Z,5240.00
2024-04-24T08:06:58.855Z,4896.00
2024-04-24T08:08:03.943Z,5104.00
2024-04-24T08:08:58.834Z,4664.00
2024-04-24T08:09:58.806Z,4496.00
2024-04-24T08:10:58.851Z,4256.00
2024-04-24T08:12:00.066Z,4992.00
2024-04-24T08:12:58.778Z,5056.00
2024-04-24T08:13:58.813Z,5660.00
2024-04-24T08:14:58.762Z,4668.00
2024-04-24T08:15:58.798Z,5448.00
2024-04-24T08:16:58.751Z,6268.00
2024-04-24T08:17:58.777Z,6204.00
2024-04-24T08:19:03.767Z,7208.00
2024-04-24T08:19:58.732Z,6984.00
2024-04-24T08:20:58.688Z,7136.00
2024-04-24T08:21:58.717Z,8296.00
2024-04-24T08:22:58.687Z,11216.00
2024-04-24T08:23:58.675Z,13816.00
2024-04-24T08:24:58.654Z,10368.00
2024-04-24T08:25:58.668Z,11400.00
2024-04-24T08:26:58.636Z,13156.00
2024-04-24T08:27:58.661Z,12128.00
2024-04-24T08:28:58.613Z,12204.00
2024-04-24T08:30:03.643Z,10492.00
2024-04-24T08:30:58.585Z,8836.00
2024-04-24T08:31:58.614Z,7444.00
2024-04-24T08:32:58.655Z,5836.00
2024-04-24T08:33:58.649Z,4596.00
2024-04-24T08:34:58.552Z,4116.00
2024-04-24T08:35:58.516Z,4308.00
2024-04-24T08:36:58.539Z,4856.00
2024-04-24T08:37:58.523Z,5896.00
2024-04-24T08:38:58.547Z,6556.00
2024-04-24T08:39:58.484Z,7364.00
2024-04-24T08:41:03.495Z,7844.00
2024-04-24T08:42:00.090Z,7424.00
2024-04-24T08:42:58.452Z,7380.00
2024-04-24T08:43:58.468Z,6752.00
2024-04-24T08:44:58.439Z,6468.00
2024-04-24T08:45:58.410Z,5588.00
2024-04-24T08:46:58.459Z,6152.00
2024-04-24T08:47:58.438Z,6384.00
2024-04-24T08:48:58.534Z,7160.00
2024-04-24T08:49:58.373Z,7216.00
2024-04-24T08:50:58.359Z,6984.00
2024-04-24T08:52:03.405Z,7700.00
2024-04-24T08:52:58.351Z,8216.00
2024-04-24T08:53:58.351Z,10336.00
2024-04-24T08:54:58.313Z,10760.00
2024-04-24T08:55:58.311Z,10108.00
2024-04-24T08:56:58.303Z,11552.00
2024-04-24T08:57:58.271Z,8948.00
2024-04-24T08:58:58.313Z,8332.00
2024-04-24T08:59:58.270Z,7812.00
2024-04-24T09:00:58.301Z,7744.00
2024-04-24T09:01:58.271Z,8672.00
2024-04-24T09:03:03.451Z,9716.00
2024-04-24T09:03:58.472Z,9696.00
2024-04-24T09:04:58.258Z,7336.00
2024-04-24T09:05:58.187Z,7736.00
2024-04-24T09:07:01.072Z,10480.00
2024-04-24T09:07:58.203Z,11768.00
2024-04-24T09:08:58.163Z,10496.00
2024-04-24T09:09:58.162Z,7288.00
2024-04-24T09:10:58.161Z,6596.00
2024-04-24T09:11:58.166Z,7952.00
2024-04-24T09:12:58.111Z,8648.00
2024-04-24T09:14:03.186Z,9464.00
2024-04-24T09:14:58.094Z,10712.00
2024-04-24T09:15:58.117Z,9552.00
2024-04-24T09:16:58.100Z,12644.00
2024-04-24T09:17:58.184Z,11608.00
2024-04-24T09:18:58.057Z,14236.00
2024-04-24T09:19:58.048Z,12584.00
2024-04-24T09:20:58.020Z,9628.00
2024-04-24T09:21:58.009Z,7944.00
2024-04-24T09:22:58.025Z,6296.00
2024-04-24T09:23:57.983Z,6000.00
2024-04-24T09:25:03.048Z,6576.00
2024-04-24T09:25:58.003Z,7528.00
2024-04-24T09:26:57.970Z,7068.00
2024-04-24T09:27:57.947Z,8252.00
2024-04-24T09:28:58.019Z,11388.00
2024-04-24T09:29:57.940Z,14616.00
2024-04-24T09:30:57.913Z,15008.00
2024-04-24T09:31:57.985Z,13452.00
2024-04-24T09:32:58.097Z,10408.00
2024-04-24T09:33:57.932Z,9880.00
2024-04-24T09:34:57.883Z,10480.00
2024-04-24T09:36:02.884Z,10524.00
2024-04-24T09:36:58.027Z,9124.00
2024-04-24T09:37:57.865Z,9556.00
2024-04-24T09:38:57.827Z,11096.00
2024-04-24T09:39:57.810Z,10036.00
2024-04-24T09:40:57.812Z,9596.00
2024-04-24T09:41:57.791Z,8920.00
2024-04-24T09:42:57.790Z,9656.00
2024-04-24T09:43:57.844Z,9140.00
2024-04-24T09:44:57.789Z,10080.00
2024-04-24T09:45:57.740Z,11340.00
2024-04-24T09:47:02.794Z,10804.00
2024-04-24T09:47:57.899Z,12020.00
2024-04-24T09:48:57.916Z,14068.00
2024-04-24T09:49:57.737Z,42880.00
2024-04-24T09:50:57.691Z,12224.00
2024-04-24T09:51:57.670Z,17984.00
2024-04-24T09:52:57.724Z,11996.00
2024-04-24T09:53:57.678Z,10284.00
2024-04-24T09:54:57.645Z,11388.00
2024-04-24T09:55:57.713Z,14420.00
2024-04-24T09:56:57.619Z,12364.00
2024-04-24T09:58:02.640Z,37568.00
2024-04-24T09:58:57.677Z,8768.00
2024-04-24T09:59:57.582Z,10988.00
2024-04-24T10:00:57.602Z,9360.00
2024-04-24T10:01:57.585Z,10020.00
2024-04-24T10:02:57.657Z,8312.00
2024-04-24T10:03:57.538Z,8724.00
2024-04-24T10:04:57.626Z,7804.00
2024-04-24T10:05:57.906Z,6928.00
2024-04-24T10:06:57.503Z,5980.00
2024-04-24T10:07:57.516Z,4116.00
2024-04-24T10:09:02.520Z,2532.00
2024-04-24T10:09:57.466Z,1592.00
2024-04-24T10:10:57.488Z,1040.00
2024-04-24T10:11:57.586Z,768.00
2024-04-24T10:12:57.449Z,812.00
2024-04-24T10:13:57.487Z,1096.00
2024-04-24T10:14:57.427Z,1620.00
2024-04-24T10:15:57.622Z,2296.00
2024-04-24T10:16:57.450Z,2720.00
2024-04-24T10:17:57.482Z,2780.00
2024-04-24T10:18:57.491Z,2880.00
2024-04-24T10:20:11.587Z,2476.00
2024-04-24T10:20:59.422Z,2956.00
2024-04-24T10:21:57.368Z,3424.00
2024-04-24T10:22:57.429Z,3492.00
2024-04-24T10:23:57.314Z,3396.00
2024-04-24T10:24:57.328Z,3472.00
2024-04-24T10:25:57.380Z,3896.00
2024-04-24T10:26:57.279Z,4128.00
2024-04-24T10:27:57.292Z,4564.00
2024-04-24T10:28:57.279Z,4720.00
2024-04-24T10:29:57.251Z,5116.00
2024-04-24T10:31:02.311Z,4732.00
2024-04-24T10:31:57.288Z,4820.00
2024-04-24T10:32:57.345Z,4772.00
2024-04-24T10:33:57.249Z,4512.00
2024-04-24T10:34:57.228Z,4204.00
2024-04-24T10:35:57.221Z,3380.00
2024-04-24T10:36:57.204Z,3268.00
2024-04-24T10:37:57.228Z,2748.00
2024-04-24T10:38:57.165Z,2204.00
2024-04-24T10:39:57.222Z,2048.00
2024-04-24T10:40:57.177Z,2348.00
2024-04-24T10:42:02.146Z,2624.00
2024-04-24T10:42:57.141Z,3136.00
2024-04-24T10:43:57.104Z,3608.00
2024-04-24T10:44:57.085Z,4312.00
2024-04-24T10:45:57.089Z,4716.00
2024-04-24T10:46:57.072Z,4816.00
2024-04-24T10:47:57.161Z,4544.00
2024-04-24T10:48:57.173Z,4024.00
2024-04-24T10:49:57.143Z,3444.00
2024-04-24T10:50:59.283Z,3568.00
2024-04-24T10:51:57.004Z,4124.00
2024-04-24T10:53:02.034Z,4848.00
2024-04-24T10:53:58.568Z,5436.00
2024-04-24T10:54:57.006Z,6040.00
2024-04-24T10:55:56.993Z,7012.00
2024-04-24T10:56:56.945Z,8224.00
2024-04-24T10:57:56.965Z,9684.00
2024-04-24T10:58:56.970Z,11676.00
2024-04-24T10:59:56.939Z,13156.00
2024-04-24T11:00:56.940Z,13012.00
2024-04-24T11:01:56.947Z,12680.00
2024-04-24T11:03:00.313Z,10868.00
2024-04-24T11:04:01.927Z,12760.00
2024-04-24T11:04:56.905Z,11544.00
2024-04-24T11:05:56.909Z,16832.00
2024-04-24T11:06:56.901Z,18080.00
2024-04-24T11:07:56.874Z,21824.00
2024-04-24T11:08:56.832Z,19488.00
2024-04-24T11:09:56.807Z,14228.00
2024-04-24T11:10:56.881Z,11176.00
2024-04-24T11:11:56.950Z,12004.00
2024-04-24T11:12:56.845Z,12068.00
2024-04-24T11:13:56.800Z,9240.00
2024-04-24T11:15:01.797Z,11124.00
2024-04-24T11:16:02.074Z,11208.00
2024-04-24T11:16:57.025Z,13988.00
2024-04-24T11:17:56.932Z,12748.00
2024-04-24T11:18:56.776Z,12704.00
2024-04-24T11:19:56.715Z,28192.00
2024-04-24T11:20:56.670Z,23840.00
2024-04-24T11:21:56.745Z,11680.00
2024-04-24T11:22:56.831Z,11224.00
2024-04-24T11:23:56.704Z,8144.00
2024-04-24T11:24:56.698Z,17632.00
2024-04-24T11:26:01.654Z,21312.00
2024-04-24T11:26:56.712Z,13896.00
2024-04-24T11:27:56.597Z,14032.00
2024-04-24T11:28:56.754Z,11144.00
2024-04-24T11:29:56.575Z,9988.00
2024-04-24T11:30:56.590Z,10420.00
2024-04-24T11:31:56.721Z,11376.00
2024-04-24T11:32:56.690Z,8532.00
2024-04-24T11:33:56.648Z,5920.00
2024-04-24T11:34:56.552Z,4860.00
2024-04-24T11:35:56.511Z,4396.00
2024-04-24T11:37:01.549Z,3600.00
2024-04-24T11:37:56.496Z,2328.00
2024-04-24T11:38:56.483Z,1576.00
2024-04-24T11:39:56.474Z,1532.00
2024-04-24T11:40:56.491Z,1880.00
2024-04-24T11:41:56.486Z,1924.00
2024-04-24T11:42:56.436Z,2036.00
2024-04-24T11:43:56.465Z,2456.00
2024-04-24T11:44:56.410Z,3268.00
2024-04-24T11:45:56.391Z,4748.00
2024-04-24T11:46:56.423Z,6424.00
2024-04-24T11:48:01.481Z,8928.00
2024-04-24T11:48:56.424Z,25632.00
2024-04-24T11:49:56.491Z,29600.00
2024-04-24T11:50:56.388Z,16896.00
2024-04-24T11:51:56.388Z,17952.00
2024-04-24T11:52:56.341Z,48128.00
2024-04-24T11:53:56.318Z,44320.00
2024-04-24T11:54:56.329Z,16108.00
2024-04-24T11:55:56.328Z,8272.00
2024-04-24T11:56:56.268Z,8716.00
2024-04-24T11:57:56.297Z,9984.00
2024-04-24T11:59:01.290Z,12660.00
2024-04-24T11:59:56.256Z,12052.00
2024-04-24T12:00:56.270Z,12072.00
2024-04-24T12:01:56.320Z,11852.00
2024-04-24T12:02:56.245Z,11592.00
2024-04-24T12:03:56.360Z,12808.00
2024-04-24T12:04:56.227Z,13604.00
2024-04-24T12:05:56.168Z,13840.00
2024-04-24T12:06:56.193Z,12108.00
2024-04-24T12:07:56.189Z,65440.00
2024-04-24T12:08:56.134Z,29504.00
2024-04-24T12:10:01.272Z,100928.00
2024-04-24T12:10:56.165Z,16896.00
2024-04-24T12:11:56.162Z,36768.00
2024-04-24T12:12:56.110Z,18336.00
2024-04-24T12:13:56.155Z,10884.00
2024-04-24T12:14:56.861Z,13076.00
2024-04-24T12:15:56.138Z,116384.00
2024-04-24T12:16:56.084Z,113504.00
2024-04-24T12:17:56.109Z,109248.00
2024-04-24T12:18:56.046Z,113248.00
2024-04-24T12:19:56.046Z,111264.00
2024-04-24T12:21:02.613Z,111968.00
2024-04-24T12:21:55.996Z,111552.00
2024-04-24T12:22:56.031Z,110560.00
2024-04-24T12:23:56.053Z,116480.00
2024-04-24T12:24:55.973Z,92960.00
2024-04-24T12:25:56.019Z,109536.00
2024-04-24T12:26:55.955Z,104800.00
2024-04-24T12:27:55.925Z,101536.00
2024-04-24T12:28:56.005Z,86496.00
2024-04-24T12:29:55.929Z,100608.00
2024-04-24T12:30:56.937Z,60352.00
2024-04-24T12:32:00.921Z,100480.00
2024-04-24T12:32:56.010Z,96896.00
2024-04-24T12:33:56.197Z,95776.00
2024-04-24T12:34:55.880Z,92704.00
2024-04-24T12:35:55.847Z,44544.00
2024-04-24T12:36:55.820Z,7892.00
2024-04-24T12:37:55.826Z,7968.00
2024-04-24T12:38:55.802Z,8708.00
2024-04-24T12:39:55.812Z,9660.00
2024-04-24T12:40:55.798Z,9760.00
2024-04-24T12:41:55.800Z,11016.00
2024-04-24T12:43:00.776Z,11456.00
2024-04-24T12:43:55.860Z,13260.00
2024-04-24T12:44:55.769Z,11596.00
2024-04-24T12:45:55.729Z,9932.00
2024-04-24T12:46:55.743Z,10064.00
2024-04-24T12:47:55.772Z,6876.00
2024-04-24T12:48:55.771Z,4684.00
2024-04-24T12:49:55.748Z,3464.00
2024-04-24T12:50:55.696Z,2612.00
2024-04-24T12:51:55.655Z,2008.00
2024-04-24T12:52:55.753Z,1296.00
2024-04-24T12:53:55.651Z,840.00
2024-04-24T12:54:55.632Z,608.00
2024-04-24T12:56:00.714Z,612.00
2024-04-24T12:56:55.615Z,752.00
2024-04-24T12:57:55.609Z,972.00
2024-04-24T12:58:55.644Z,1268.00
2024-04-24T12:59:55.594Z,1460.00
2024-04-24T13:00:55.587Z,1764.00
2024-04-24T13:01:55.577Z,2004.00
2024-04-24T13:02:55.629Z,2028.00
2024-04-24T13:03:55.651Z,2256.00
2024-04-24T13:04:55.528Z,2320.00
2024-04-24T13:05:55.547Z,2108.00
2024-04-24T13:07:00.525Z,2728.00
2024-04-24T13:07:55.496Z,3408.00
2024-04-24T13:08:55.483Z,4220.00
2024-04-24T13:09:55.468Z,5456.00
2024-04-24T13:10:55.514Z,7804.00
2024-04-24T13:11:55.550Z,9784.00
2024-04-24T13:12:55.443Z,10452.00
2024-04-24T13:13:55.455Z,11308.00
2024-04-24T13:14:55.400Z,10924.00
2024-04-24T13:15:55.389Z,9472.00
2024-04-24T13:16:55.449Z,9096.00
2024-04-24T13:18:00.620Z,8188.00
2024-04-24T13:18:55.449Z,8452.00
2024-04-24T13:19:55.376Z,8404.00
2024-04-24T13:20:55.346Z,8244.00
2024-04-24T13:21:55.321Z,7864.00
2024-04-24T13:22:55.340Z,7600.00
2024-04-24T13:23:55.307Z,7924.00
2024-04-24T13:24:55.327Z,7788.00
2024-04-24T13:25:55.345Z,7672.00
2024-04-24T13:26:55.272Z,7728.00
2024-04-24T13:27:55.253Z,7836.00
2024-04-24T13:29:00.392Z,7632.00
2024-04-24T13:29:55.235Z,7776.00
2024-04-24T13:30:55.233Z,7768.00
2024-04-24T13:31:55.246Z,8152.00
2024-04-24T13:32:55.297Z,8296.00
2024-04-24T13:33:55.343Z,8848.00
2024-04-24T13:34:55.238Z,8528.00
2024-04-24T13:35:55.166Z,9392.00
2024-04-24T13:36:55.150Z,9036.00
2024-04-24T13:37:55.156Z,9180.00
2024-04-24T13:38:55.137Z,8340.00
2024-04-24T13:40:00.348Z,7004.00
2024-04-24T13:40:55.161Z,6276.00
2024-04-24T13:41:55.104Z,5528.00
2024-04-24T13:42:55.118Z,6356.00
2024-04-24T13:43:55.123Z,4648.00
2024-04-24T13:44:55.076Z,5536.00
2024-04-24T13:45:55.054Z,7352.00
2024-04-24T13:46:55.069Z,6112.00
2024-04-24T13:47:55.199Z,7608.00
2024-04-24T13:48:55.462Z,7396.00
2024-04-24T13:49:55.098Z,6328.00
2024-04-24T13:51:00.030Z,5592.00
2024-04-24T13:51:54.998Z,6108.00
2024-04-24T13:52:55.048Z,6276.00
2024-04-24T13:53:54.978Z,5780.00
2024-04-24T13:54:54.973Z,5164.00
2024-04-24T13:55:54.982Z,4116.00
2024-04-24T13:56:54.930Z,2908.00
2024-04-24T13:57:54.941Z,2648.00
2024-04-24T13:58:55.028Z,2724.00
2024-04-24T13:59:54.907Z,2432.00
2024-04-24T14:00:54.935Z,2184.00
2024-04-24T14:01:59.919Z,2500.00
2024-04-24T14:02:55.013Z,3236.00
2024-04-24T14:03:55.057Z,4152.00
2024-04-24T14:04:54.914Z,5420.00
2024-04-24T14:05:54.850Z,6700.00
2024-04-24T14:06:54.852Z,7220.00
2024-04-24T14:07:54.874Z,7444.00
2024-04-24T14:08:54.830Z,6408.00
2024-04-24T14:09:54.808Z,6808.00
2024-04-24T14:10:54.836Z,6972.00
2024-04-24T14:11:54.817Z,5600.00
2024-04-24T14:12:59.777Z,4232.00
2024-04-24T14:13:54.763Z,3404.00
2024-04-24T14:14:54.731Z,2928.00
2024-04-24T14:15:54.731Z,2696.00
2024-04-24T14:16:54.718Z,2588.00
2024-04-24T14:17:54.727Z,2520.00
2024-04-24T14:18:54.689Z,2480.00
2024-04-24T14:19:54.691Z,2460.00
2024-04-24T14:20:54.662Z,2480.00
2024-04-24T14:21:54.666Z,2488.00
2024-04-24T14:22:54.649Z,1868.00
2024-04-24T14:23:59.654Z,2424.00
2024-04-24T14:24:54.618Z,2392.00
2024-04-24T14:25:54.616Z,2468.00
2024-04-24T14:26:54.595Z,2540.00
2024-04-24T14:27:54.610Z,2360.00
2024-04-24T14:28:54.610Z,2432.00
2024-04-24T14:29:54.581Z,2632.00
2024-04-24T14:30:54.548Z,2708.00
2024-04-24T14:31:54.570Z,2828.00
2024-04-24T14:32:54.733Z,2672.00
2024-04-24T14:33:54.521Z,2944.00
2024-04-24T14:34:59.554Z,3132.00
2024-04-24T14:35:54.492Z,2568.00
2024-04-24T14:36:56.441Z,2776.00
2024-04-24T14:37:54.480Z,3412.00
2024-04-24T14:38:54.479Z,3140.00
2024-04-24T14:39:54.461Z,2340.00
2024-04-24T14:40:54.447Z,2084.00
2024-04-24T14:41:54.442Z,2268.00
2024-04-24T14:42:54.427Z,1720.00
2024-04-24T14:43:54.431Z,2240.00
2024-04-24T14:44:54.414Z,3308.00
2024-04-24T14:45:59.401Z,4604.00
2024-04-24T14:46:54.417Z,4876.00
2024-04-24T14:47:54.468Z,5668.00
2024-04-24T14:48:55.491Z,5692.00
2024-04-24T14:49:54.375Z,5852.00
2024-04-24T14:50:54.387Z,5692.00
2024-04-24T14:51:54.318Z,5472.00
2024-04-24T14:52:54.306Z,5248.00
2024-04-24T14:53:54.309Z,5180.00
2024-04-24T14:54:54.289Z,5000.00
2024-04-24T14:55:54.323Z,5136.00
2024-04-24T14:56:59.326Z,4944.00
2024-04-24T14:57:54.248Z,5052.00
2024-04-24T14:58:54.245Z,4796.00
2024-04-24T14:59:54.229Z,4792.00
2024-04-24T15:00:55.593Z,4556.00
2024-04-24T15:01:54.285Z,4412.00
2024-04-24T15:02:54.243Z,4252.00
2024-04-24T15:03:54.182Z,3928.00
2024-04-24T15:04:54.186Z,3932.00
2024-04-24T15:05:54.179Z,3740.00
2024-04-24T15:06:54.153Z,3592.00
2024-04-24T15:07:59.215Z,3396.00
2024-04-24T15:08:54.140Z,3060.00
2024-04-24T15:09:54.147Z,3140.00
2024-04-24T15:10:54.120Z,3104.00
2024-04-24T15:11:54.184Z,3032.00
2024-04-24T15:12:54.086Z,3060.00
2024-04-24T15:13:54.088Z,3112.00
2024-04-24T15:14:54.075Z,3016.00
2024-04-24T15:15:54.061Z,3112.00
2024-04-24T15:16:54.082Z,3288.00
2024-04-24T15:17:54.234Z,3488.00
2024-04-24T15:18:59.046Z,3624.00
2024-04-24T15:19:54.019Z,3556.00
2024-04-24T15:20:54.021Z,3404.00
2024-04-24T15:21:55.552Z,3276.00
2024-04-24T15:22:53.986Z,3124.00
2024-04-24T15:23:53.972Z,2984.00
2024-04-24T15:24:53.953Z,3008.00
2024-04-24T15:25:53.945Z,3000.00
2024-04-24T15:26:53.941Z,2928.00
2024-04-24T15:27:53.955Z,2832.00
2024-04-24T15:28:53.945Z,2720.00
2024-04-24T15:29:59.018Z,2776.00
2024-04-24T15:30:53.902Z,2856.00
2024-04-24T15:31:53.881Z,2904.00
2024-04-24T15:32:54.002Z,2696.00
2024-04-24T15:33:53.895Z,2568.00
2024-04-24T15:34:53.861Z,2364.00
2024-04-24T15:35:53.844Z,2304.00
2024-04-24T15:36:53.855Z,2284.00
2024-04-24T15:37:53.810Z,2580.00
2024-04-24T15:38:53.821Z,2376.00
2024-04-24T15:39:53.783Z,2524.00
2024-04-24T15:40:58.883Z,2264.00
2024-04-24T15:41:53.818Z,1724.00
2024-04-24T15:42:53.754Z,1568.00
2024-04-24T15:43:53.758Z,2320.00
2024-04-24T15:44:53.749Z,2392.00
2024-04-24T15:45:53.719Z,1740.00
2024-04-24T15:46:53.720Z,2668.00
2024-04-24T15:47:53.901Z,2744.00
2024-04-24T15:48:53.718Z,2664.00
2024-04-24T15:49:53.689Z,3092.00
2024-04-24T15:50:53.668Z,2912.00
2024-04-24T15:51:58.690Z,2900.00
2024-04-24T15:52:53.657Z,2904.00
2024-04-24T15:53:53.635Z,2500.00
2024-04-24T15:54:53.630Z,2552.00
2024-04-24T15:55:53.622Z,2364.00
2024-04-24T15:56:53.611Z,1900.00
2024-04-24T15:57:53.595Z,1700.00
2024-04-24T15:58:53.624Z,1864.00
2024-04-24T15:59:53.570Z,1724.00
2024-04-24T16:00:53.591Z,1204.00
2024-04-24T16:01:53.543Z,1172.00
2024-04-24T16:02:58.565Z,1144.00
2024-04-24T16:03:53.531Z,1100.00
2024-04-24T16:04:53.539Z,1440.00
2024-04-24T16:05:53.510Z,1664.00
2024-04-24T16:06:53.491Z,1800.00
2024-04-24T16:07:53.499Z,2000.00
2024-04-24T16:08:53.466Z,2356.00
2024-04-24T16:09:53.452Z,2364.00
2024-04-24T16:10:53.532Z,2540.00
2024-04-24T16:11:53.549Z,2472.00
2024-04-24T16:12:53.428Z,2300.00
2024-04-24T16:13:58.431Z,3168.00
2024-04-24T16:14:53.424Z,2660.00
2024-04-24T16:15:53.393Z,2092.00
2024-04-24T16:16:53.419Z,1768.00
2024-04-24T16:17:53.486Z,1420.00
2024-04-24T16:18:53.532Z,1560.00
2024-04-24T16:19:53.379Z,1732.00
2024-04-24T16:20:53.335Z,1440.00
2024-04-24T16:21:53.321Z,1592.00
2024-04-24T16:22:53.317Z,1652.00
2024-04-24T16:23:53.330Z,1636.00
2024-04-24T16:24:58.313Z,1592.00
2024-04-24T16:25:53.294Z,1612.00
2024-04-24T16:26:53.276Z,1680.00
2024-04-24T16:27:53.251Z,1732.00
2024-04-24T16:28:53.254Z,1688.00
2024-04-24T16:29:53.266Z,1560.00
2024-04-24T16:30:53.217Z,932.00
2024-04-24T16:31:53.205Z,1508.00
2024-04-24T16:32:53.317Z,1488.00
2024-04-24T16:33:53.240Z,1492.00
2024-04-24T16:34:53.172Z,1512.00
2024-04-24T16:35:58.209Z,1548.00
2024-04-24T16:36:53.155Z,1532.00
2024-04-24T16:37:53.155Z,1472.00
2024-04-24T16:38:53.135Z,1680.00
2024-04-24T16:39:53.158Z,1756.00
2024-04-24T16:40:53.142Z,2096.00
2024-04-24T16:41:53.102Z,2460.00
2024-04-24T16:42:53.096Z,3304.00
2024-04-24T16:43:53.538Z,2664.00
2024-04-24T16:44:53.073Z,1804.00
2024-04-24T16:45:53.063Z,1592.00
2024-04-24T16:46:58.156Z,1564.00
2024-04-24T16:47:53.240Z,1416.00
2024-04-24T16:48:53.118Z,1232.00
2024-04-24T16:49:53.004Z,968.00
2024-04-24T16:50:53.009Z,804.00
2024-04-24T16:51:52.983Z,744.00
2024-04-24T16:52:52.984Z,688.00
2024-04-24T16:53:52.966Z,640.00
2024-04-24T16:54:52.953Z,616.00
2024-04-24T16:55:52.975Z,680.00
2024-04-24T16:56:52.944Z,680.00
2024-04-24T16:57:57.934Z,692.00
2024-04-24T16:58:52.905Z,752.00
2024-04-24T16:59:52.925Z,848.00
2024-04-24T17:00:52.964Z,848.00
2024-04-24T17:01:52.886Z,676.00
2024-04-24T17:02:52.891Z,588.00
2024-04-24T17:03:52.849Z,520.00
2024-04-24T17:04:52.842Z,516.00